Terminal Aerodrome Forecast
Issued by NWS Wilmington, OH

Current Version | Previous Version | Graphics & Text | Print | Product List | Glossary On
Versions: 1 2 3 4 5 6 7 8 9 10 11 12 13 14 15 16 17 18 19 20 21 22 23 24 25
878
FTUS41 KILN 281844 AAA
TAFCMH
TAF AMD
KCMH 281844Z 2819/2918 24006KT P6SM SCT021 BKN050
      TEMPO 2819/2821 BKN021
     FM282100 02006KT P6SM VCTS BKN018CB OVC025
     FM290000 35004KT P6SM BKN025
     FM290600 34004KT 5SM BR OVC007
     FM290900 34003KT 2SM BR OVC003
     FM291300 32005KT 5SM BR OVC008
     FM291600 28006KT P6SM OVC015=

USA.gov is the U.S. government's official web portal to all federal, state and local government web resources and services.